Latest Weather Observations for Strathalbyn

IDS60901

Issued at 4:45 pm CST Wednesday 16 April 2014 (issued every 10 minutes, with the page automatically refreshed every 10 minutes)

About weather observations | Map of Adelaide area stations | Latest observations for Adelaide area | Other Formats
Station Details ID: 024580 Name: STRATHALBYN RACECOURSE Lat: -35.28 Lon: 138.89 Height: 58.0 m
Data from the previous 72 hours. | See also: Recent months at Strathalbyn
Date/Time
CST
Tmp

°C
App
Tmp
°C
Dew
Point
°C
Rel
Hum
%
Delta-T

°C
Wind Press
QNH
hPa
Press
MSL
hPa
Rain
since
9 am
mm
Dir
 
Spd
km/h
Gust
km/h
Spd
kts
Gust
kts
16/04:30pm 21.6 17.4 5.5 35 8.0 SW 17 24 9 13 1018.5 - 0.0
16/04:00pm 21.6 17.2 4.7 33 8.3 W 17 26 9 14 1018.4 - 0.0
16/03:30pm 22.4 18.4 4.9 32 8.7 W 15 20 8 11 1018.3 - 0.0
16/03:00pm 22.0 16.8 3.6 30 8.9 W 20 28 11 15 1018.4 1018.4 0.0
16/02:30pm 22.7 17.2 4.2 30 9.1 W 22 30 12 16 1018.5 - 0.0
16/02:00pm 22.6 18.3 5.1 32 8.7 NW 17 26 9 14 1018.3 - 0.0
16/01:30pm 23.2 18.6 5.6 32 8.9 WNW 19 28 10 15 1018.4 - 0.0
16/01:00pm 22.8 19.8 6.1 34 8.5 NW 11 19 6 10 1018.5 - 0.0
16/12:30pm 22.7 19.4 6.5 35 8.3 WNW 13 30 7 16 1019.0 - 0.0
16/12:00pm 21.9 18.4 7.0 38 7.6 WNW 15 26 8 14 1019.4 1019.4 0.0
16/11:30am 21.7 18.0 7.9 41 7.2 WNW 17 26 9 14 1019.6 - 0.0
16/11:00am 21.4 16.8 8.0 42 7.0 WNW 22 28 12 15 1020.1 - 0.0
16/10:30am 20.6 17.3 7.9 44 6.6 W 15 22 8 12 1020.4 - 0.0
16/10:00am 20.1 18.4 9.7 51 5.6 NW 9 13 5 7 1020.3 - 0.0
16/09:30am 18.7 17.9 11.0 61 4.2 N 6 7 3 4 1020.3 - 0.0
16/09:00am 16.8 14.9 10.4 66 3.4 N 11 13 6 7 1020.1 1020.1 0.0
16/08:30am 15.8 13.8 10.3 70 2.9 NNW 11 17 6 9 1020.5 - 0.0
16/08:00am 14.4 12.8 10.2 76 2.2 N 9 13 5 7 1020.4 - 0.0
16/07:30am 11.5 8.8 9.1 85 1.2 NNW 13 17 7 9 1020.1 - 0.0
16/07:00am 10.4 8.0 8.5 88 0.9 N 11 15 6 8 1020.1 - 0.0
16/06:30am 9.7 6.8 8.0 89 0.8 NNW 13 15 7 8 1020.3 - 0.0
16/06:00am 9.9 7.0 8.0 88 0.9 NNW 13 17 7 9 1020.4 1020.4 0.0
16/05:30am 10.2 7.4 8.5 89 0.8 NNW 13 15 7 8 1020.2 - 0.0
16/05:00am 10.4 7.6 8.5 88 0.9 NNW 13 15 7 8 1020.1 - 0.0
16/04:30am 10.6 7.4 8.4 86 1.1 NW 15 17 8 9 1020.0 - 0.0
16/04:00am 11.0 8.0 9.1 88 0.9 NW 15 19 8 10 1020.1 - 0.0
16/03:30am 10.3 6.8 8.6 89 0.8 NNW 17 19 9 10 1019.9 - 0.0
16/03:00am 10.3 7.2 8.7 90 0.8 NNW 15 17 8 9 1020.5 1020.5 0.0
16/02:30am 10.6 8.7 9.0 90 0.8 NW 9 11 5 6 1021.0 - 0.0
16/02:00am 10.9 9.4 9.3 90 0.8 WNW 7 11 4 6 1021.4 - 0.0
16/01:30am 11.3 9.6 9.9 91 0.7 WNW 9 11 5 6 1021.9 - 0.0
16/01:00am 11.2 9.7 9.3 88 1.0 W 7 9 4 5 1022.0 - 0.0
16/12:30am 11.5 9.8 9.8 89 0.9 WNW 9 11 5 6 1022.0 - 0.0
16/12:00am 11.1 9.6 9.2 88 0.9 W 7 9 4 5 1021.8 1021.7 0.0
 
Date/Time
CST
Tmp

°C
App
Tmp
°C
Dew
Point
°C
Rel
Hum
%
Delta-T

°C
Wind Press
QNH
hPa
Press
MSL
hPa
Rain
since
9 am
mm
Dir
 
Spd
km/h
Gust
km/h
Spd
kts
Gust
kts
15/11:30pm 12.4 10.5 10.5 88 1.0 W 11 13 6 7 1022.1 - 0.0
15/11:00pm 11.9 10.3 10.1 89 0.9 WNW 9 9 5 5 1022.2 - 0.0
15/10:30pm 12.8 11.3 10.7 87 1.1 W 9 11 5 6 1022.5 - 0.0
15/10:00pm 12.8 10.8 10.3 85 1.3 WSW 11 13 6 7 1022.7 - 0.0
15/09:30pm 13.2 11.0 10.9 86 1.2 W 13 15 7 8 1022.8 - 0.0
15/09:00pm 13.1 10.9 10.8 86 1.2 WSW 13 13 7 7 1022.6 1022.5 0.0
15/08:30pm 13.0 11.2 10.7 86 1.2 W 11 13 6 7 1022.7 - 0.0
15/08:00pm 13.1 11.2 10.6 85 1.3 WSW 11 13 6 7 1022.7 - 0.0
15/07:30pm 13.3 11.7 10.3 82 1.6 WSW 9 11 5 6 1022.6 - 0.0
15/07:00pm 13.4 12.1 10.0 80 1.8 WSW 7 9 4 5 1022.5 - 0.0
15/06:30pm 14.4 12.5 10.6 78 2.0 SSW 11 13 6 7 1022.5 - 0.0
15/06:00pm 15.2 12.6 10.8 75 2.3 SSW 15 17 8 9 1022.2 1022.1 0.0
15/05:30pm 16.4 12.4 10.3 67 3.2 SSW 22 28 12 15 1021.9 - 0.0
15/05:00pm 17.5 13.2 9.4 59 4.2 S 22 28 12 15 1021.9 - 0.0
15/04:30pm 18.8 14.6 9.6 55 4.9 SSW 22 28 12 15 1021.6 - 0.0
15/04:00pm 19.7 16.0 8.1 47 6.0 S 17 22 9 12 1021.2 - 0.0
15/03:30pm 20.3 17.8 8.0 45 6.4 SE 11 20 6 11 1021.3 - 0.0
15/03:00pm 20.5 17.8 8.8 47 6.2 SSE 13 22 7 12 1021.4 1021.3 0.0
15/02:30pm 20.0 17.5 8.0 46 6.2 SSE 11 17 6 9 1021.5 - 0.0
15/02:00pm 19.7 16.2 7.4 45 6.3 SSE 15 22 8 12 1021.7 - 0.0
15/01:30pm 19.6 16.5 7.4 45 6.2 SE 13 24 7 13 1021.7 - 0.0
15/01:00pm 19.6 15.9 8.0 47 6.0 E 17 24 9 13 1022.0 - 0.0
15/12:30pm 19.0 15.6 7.8 48 5.7 SE 15 24 8 13 1022.6 - 0.0
15/12:00pm 18.9 16.1 8.6 51 5.3 E 13 20 7 11 1023.1 1023.0 0.0
15/11:30am 18.2 15.2 7.9 51 5.3 ENE 13 20 7 11 1023.6 - 0.0
15/11:00am 17.5 15.9 8.6 56 4.6 NE 7 15 4 8 1024.1 - 0.0
15/10:30am 17.0 15.5 9.2 60 4.1 SE 7 13 4 7 1024.6 - 0.0
15/10:00am 16.1 15.2 10.8 71 2.8 SSW 6 13 3 7 1024.8 - 0.0
15/09:30am 14.9 13.8 10.7 76 2.2 SW 7 11 4 6 1024.8 - 0.0
15/09:00am 13.3 12.2 10.7 84 1.4 SW 7 11 4 6 1024.9 1024.8 0.0
15/08:30am 13.3 13.3 11.0 86 1.2 SW 2 6 1 3 1024.8 - 0.0
15/08:00am 12.2 12.5 10.8 91 0.7 CALM 0 0 0 0 1024.7 - 0.0
15/07:30am 9.9 8.5 8.7 92 0.6 SW 6 9 3 5 1024.4 - 0.0
15/07:00am 8.1 6.6 6.6 90 0.7 SW 4 6 2 3 1024.0 - 0.0
15/06:30am 8.8 7.4 7.4 91 0.7 SW 4 6 2 3 1023.9 - 0.0
15/06:00am 8.5 7.0 7.0 90 0.7 SW 4 7 2 4 1023.9 1023.8 0.0
15/05:30am 9.3 8.7 7.6 89 0.8 CALM 0 0 0 0 1023.8 - 0.0
15/05:00am 10.3 8.5 8.1 86 1.1 SW 7 9 4 5 1023.7 - 0.0
15/04:30am 11.2 9.4 9.3 88 1.0 WSW 9 11 5 6 1023.7 - 0.0
15/04:00am 11.3 9.1 9.2 87 1.1 WSW 11 13 6 7 1023.6 - 0.0
15/03:30am 11.4 9.2 9.3 87 1.1 WSW 11 13 6 7 1023.5 - 0.0
15/03:00am 11.5 9.3 9.4 87 1.1 WSW 11 13 6 7 1023.5 1023.4 0.0
15/02:30am 11.8 9.7 9.7 87 1.1 SW 11 13 6 7 1023.5 - 0.0
15/02:00am 12.1 10.1 10.0 87 1.1 SSW 11 13 6 7 1023.7 - 0.0
15/01:30am 12.4 10.4 10.3 87 1.1 SSW 11 13 6 7 1023.7 - 0.0
15/01:00am 12.8 11.3 10.7 87 1.1 SW 9 13 5 7 1023.7 - 0.0
15/12:30am 13.0 11.5 10.7 86 1.2 SW 9 11 5 6 1023.4 - 0.0
15/12:00am 13.3 11.9 11.0 86 1.2 WSW 9 11 5 6 1023.5 1023.4 0.0
 
Date/Time
CST
Tmp

°C
App
Tmp
°C
Dew
Point
°C
Rel
Hum
%
Delta-T

°C
Wind Press
QNH
hPa
Press
MSL
hPa
Rain
since
9 am
mm
Dir
 
Spd
km/h
Gust
km/h
Spd
kts
Gust
kts
14/11:30pm 13.4 11.7 11.1 86 1.2 WSW 11 13 6 7 1023.6 - 0.0
14/11:00pm 13.5 11.8 11.2 86 1.2 SW 11 13 6 7 1023.7 - 0.0
14/10:30pm 13.6 12.3 11.3 86 1.2 SW 9 11 5 6 1023.9 - 0.0
14/10:00pm 13.7 12.1 11.4 86 1.2 WSW 11 15 6 8 1023.9 - 0.0
14/09:30pm 13.3 11.9 10.8 85 1.3 WSW 9 11 5 6 1023.8 - 0.0
14/09:00pm 13.9 12.6 11.2 84 1.4 SSW 9 15 5 8 1023.7 1023.6 0.0
14/08:30pm 14.0 11.5 11.2 83 1.5 S 15 20 8 11 1023.5 - 0.0
14/08:00pm 14.1 11.6 11.1 82 1.6 S 15 19 8 10 1023.5 - 0.0
14/07:30pm 14.5 11.7 11.5 82 1.6 S 17 20 9 11 1023.3 - 0.0
14/07:00pm 14.8 12.1 11.6 81 1.7 S 17 22 9 12 1023.1 - 0.0
14/06:30pm 15.3 11.7 11.7 79 1.9 S 22 28 12 15 1022.9 - 0.0
14/06:00pm 15.7 11.6 11.3 75 2.4 S 24 30 13 16 1022.7 1022.6 0.0
14/05:30pm 16.3 11.1 11.5 73 2.6 S 30 39 16 21 1022.3 - 0.0
14/05:00pm 17.0 11.3 11.9 72 2.8 S 33 43 18 23 1021.9 - 0.0
14/04:30pm 18.4 13.2 11.7 65 3.7 S 30 39 16 21 1021.8 - 0.0
14/04:00pm 18.8 13.5 11.1 61 4.2 S 30 41 16 22 1021.8 - 0.0
14/03:30pm 18.8 13.1 9.8 56 4.8 S 30 39 16 21 1021.7 - 0.0
14/03:00pm 19.1 13.3 9.6 54 5.0 S 30 41 16 22 1021.7 1021.6 0.0
14/02:30pm 19.9 14.6 9.8 52 5.4 S 28 35 15 19 1021.7 - 0.0
14/02:00pm 19.7 15.6 8.7 49 5.8 SSE 20 35 11 19 1021.6 - 0.0
14/01:30pm 19.7 15.7 8.4 48 5.9 SSE 19 30 10 16 1021.7 - 0.0
14/01:00pm 18.7 14.2 6.9 46 5.9 SSE 20 28 11 15 1022.1 - 0.0
14/12:30pm 19.3 14.4 6.8 44 6.3 SSE 22 32 12 17 1022.5 - 0.0
14/12:00pm 19.1 14.2 6.9 45 6.1 SE 22 37 12 20 1023.0 1022.9 0.0
14/11:30am 18.4 14.1 6.9 47 5.8 SSE 19 26 10 14 1023.3 - 0.0
14/11:00am 17.3 13.3 6.8 50 5.2 SSE 17 24 9 13 1023.4 - 0.0
14/10:30am 17.3 14.3 7.9 54 4.8 SE 13 24 7 13 1023.6 - 0.0
14/10:00am 16.4 13.7 9.1 62 3.8 S 13 20 7 11 1024.0 - 0.0
14/09:30am 15.7 13.5 9.4 66 3.3 S 11 17 6 9 1024.1 - 0.0
14/09:00am 15.2 12.8 10.2 72 2.6 S 13 17 7 9 1024.2 1024.1 0.0
14/08:30am 14.4 11.6 10.0 75 2.3 SW 15 17 8 9 1024.2 - 0.0
14/08:00am 13.9 11.9 10.3 79 1.9 SW 11 13 6 7 1024.1 - 0.0
14/07:30am 12.8 11.1 9.8 82 1.5 WSW 9 11 5 6 1023.8 - 0.0
14/07:00am 11.5 9.2 9.1 85 1.2 WSW 11 13 6 7 1023.5 - 0.0
14/06:30am 12.0 9.9 9.6 85 1.2 SW 11 15 6 8 1023.3 - 0.0
14/06:00am 12.3 10.6 10.0 86 1.2 WSW 9 11 5 6 1023.1 1023.0 0.0
14/05:30am 12.3 10.3 10.0 86 1.2 SW 11 13 6 7 1023.0 - 0.0
14/05:00am 12.3 10.7 10.2 87 1.1 WSW 9 11 5 6 1022.7 - 0.0
14/04:30am 11.9 9.9 10.1 89 0.9 SW 11 13 6 7 1022.5 - 0.0
14/04:00am 12.1 10.1 10.2 88 1.0 SW 11 13 6 7 1022.3 - 0.0
14/03:30am 12.5 10.7 10.7 89 0.9 SW 11 13 6 7 1022.0 - 0.0
14/03:00am 12.8 11.4 11.0 89 0.9 SW 9 11 5 6 1021.9 1021.8 0.0
14/02:30am 13.1 11.4 11.2 88 1.0 SW 11 15 6 8 1022.0 - 0.0
14/02:00am 13.8 11.9 11.8 88 1.1 SSW 13 15 7 8 1022.0 - 0.0
14/01:30am 14.3 12.1 12.2 87 1.1 SSW 15 17 8 9 1022.0 - 0.0
14/01:00am 15.0 13.3 12.5 85 1.4 S 13 15 7 8 1021.9 - 0.0
14/12:30am 15.3 12.8 12.4 83 1.6 S 17 20 9 11 1021.8 - 0.0
14/12:00am 15.7 13.6 12.5 81 1.8 S 15 20 8 11 1022.1 1022.0 0.0
 
Date/Time
CST
Tmp

°C
App
Tmp
°C
Dew
Point
°C
Rel
Hum
%
Delta-T

°C
Wind Press
QNH
hPa
Press
MSL
hPa
Rain
since
9 am
mm
Dir
 
Spd
km/h
Gust
km/h
Spd
kts
Gust
kts
13/11:30pm 15.8 13.0 12.5 81 1.8 S 19 28 10 15 1022.2 - 0.0
13/11:00pm 15.8 12.8 12.4 80 1.9 S 20 26 11 14 1022.5 - 0.0
13/10:30pm 15.8 12.9 12.4 80 1.9 S 19 26 10 14 1022.8 - 0.0
13/10:00pm 15.8 12.7 12.2 79 2.0 S 20 26 11 14 1022.8 - 0.0
13/09:30pm 15.7 12.7 12.1 79 2.0 S 19 24 10 13 1023.0 - 0.0
13/09:00pm 15.6 12.4 12.0 79 2.0 S 20 26 11 14 1023.1 1023.0 0.0
13/08:30pm 15.7 12.1 11.9 78 2.1 S 22 32 12 17 1022.8 - 0.0
13/08:00pm 15.7 12.2 12.1 79 2.0 S 22 30 12 16 1022.7 - 0.0
13/07:30pm 15.6 12.4 12.0 79 2.0 S 20 33 11 18 1022.5 - 0.0
13/07:00pm 15.0 13.5 12.0 82 1.6 S 11 13 6 7 1022.4 - 0.0
13/06:30pm 15.2 12.2 11.8 80 1.8 S 19 24 10 13 1022.1 - 0.0
13/06:00pm 15.7 11.7 11.7 77 2.2 S 24 35 13 19 1021.6 1021.5 0.0
13/05:30pm 16.1 11.4 11.9 76 2.3 S 28 33 15 18 1021.3 - 0.0
13/05:00pm 16.4 12.0 11.6 73 2.6 S 26 35 14 19 1021.1 - 0.0

Latest Capital City Observations: Canberra | Sydney | Melbourne | Brisbane | Adelaide | Perth | Hobart | Darwin

Other Formats:

Comma delimited format used in spreadsheet applications
http://www.bom.gov.au/fwo/IDS60901/IDS60901.94814.axf

JavaScript Object Notation format (JSON) in row-major order
http://www.bom.gov.au/fwo/IDS60901/IDS60901.94814.json